Newark, New Jersey
Current Conditions -  °F | °C
As of 6:51 AM on Saturday 25 Oct 2014 (Local Time) from KEWR Reporting Station
Scattered Clouds Scattered Clouds  
Wind Chill:   Ceiling: Unl
Heat Index:   Visibility: 10mi
Dew Point:   Wind: 3mph
Humidity: 61%   Direction: 240°WSW
Pressure: 29.87"   Gusts: NA
Location:  40.73°N, 74.17°W
Report Text: KEWR 251051Z 24003KT 10SM SCT250 09/02 A2987 RMK AO2 SLP114 T00890017
Loading
Personal Weather Stations






























Interactive Weather Map New forecast layout! Learn more

10-Day Weather Forecast

Advertisements
Track Severe Weather on mobile